Rechercher aéroport 
image banner adimage banner adimage banner ad
image banner ad

CN22 - Mercey Hot Springs

Situé à Firebaugh, United States

ICAO - CN22, IATA -

Données fournies par Airmate  

Information générale

Coordonnées: N36°42'23" W120°51'36"
Élévation : 1170 feet MSL.
 
Voir autres Aéroports à California

Données opérationnelles

Special qualification required
Heure actuelle UTC:
Heure actuelle locale:
Météo à : KCVH - Hollister Muni ( 53 km )
METAR: KCVH 231355Z AUTO 00000KT M1/4SM FG OVC001 12/12 A2997 RMK A01
Voir NOTAMs / SUP AIP / TFR affectant cet aéroport [VIEW]
Fréquences de communication: [VIEW]

Pistes:

Identifiant RWYQFULongueur (ft)Largeur (ft)SurfaceLDA (ft)
15208230EARTH
33208230EARTH

Coordonnées de l'aéroport

Adresse: Firebaugh United States

Vue satellite de CN22